createdAt,value
2022-08-11T00:00:35.995Z,20.72
2022-08-11T00:03:08.219Z,20.64
2022-08-11T00:05:45.486Z,20.58
2022-08-11T00:08:22.078Z,20.55
2022-08-11T00:10:55.367Z,20.52
2022-08-11T00:13:32.651Z,20.51
2022-08-11T00:16:00.789Z,20.48
2022-08-11T00:18:29.007Z,20.45
2022-08-11T00:21:00.449Z,20.43
2022-08-11T00:23:28.259Z,20.41
2022-08-11T00:25:57.130Z,20.37
2022-08-11T00:28:27.723Z,20.36
2022-08-11T00:30:56.501Z,20.31
2022-08-11T00:33:44.814Z,20.27
2022-08-11T00:36:15.909Z,20.25
2022-08-11T00:38:45.563Z,20.20
2022-08-11T00:41:28.485Z,20.19
2022-08-11T00:44:22.686Z,20.15
2022-08-11T00:46:59.044Z,20.13
2022-08-11T00:49:38.458Z,20.10
2022-08-11T00:52:28.614Z,20.08
2022-08-11T00:55:34.542Z,20.08
2022-08-11T00:58:48.339Z,20.05
2022-08-11T01:01:30.376Z,20.01
2022-08-11T01:04:17.917Z,20.02
2022-08-11T01:08:00.469Z,20.03
2022-08-11T01:10:37.992Z,20.01
2022-08-11T01:13:14.927Z,19.99
2022-08-11T01:16:27.653Z,19.99
2022-08-11T01:20:45.416Z,19.92
2022-08-11T01:23:15.841Z,19.86
2022-08-11T01:26:51.169Z,19.80
2022-08-11T01:29:55.874Z,19.71
2022-08-11T01:32:57.207Z,19.64
2022-08-11T01:36:05.990Z,19.63
2022-08-11T01:39:02.821Z,19.62
2022-08-11T01:42:10.137Z,19.59
2022-08-11T01:45:06.359Z,19.60
2022-08-11T01:47:54.348Z,19.57
2022-08-11T01:50:32.099Z,19.55
2022-08-11T01:53:12.861Z,19.53
2022-08-11T01:55:47.875Z,19.47
2022-08-11T01:58:19.941Z,19.48
2022-08-11T02:01:13.737Z,19.43
2022-08-11T02:03:46.483Z,19.42
2022-08-11T02:06:39.094Z,19.42
2022-08-11T02:09:13.983Z,19.38
2022-08-11T02:11:47.544Z,19.36
2022-08-11T02:14:24.862Z,19.33
2022-08-11T02:17:04.488Z,19.30
2022-08-11T02:20:01.509Z,19.28
2022-08-11T02:22:54.493Z,19.27
2022-08-11T02:25:30.682Z,19.27
2022-08-11T02:28:04.824Z,19.28
2022-08-11T02:30:38.501Z,19.27
2022-08-11T02:33:24.291Z,19.26
2022-08-11T02:36:03.519Z,19.26
2022-08-11T02:38:35.737Z,19.28
2022-08-11T02:41:30.440Z,19.24
2022-08-11T02:44:13.449Z,19.22
2022-08-11T02:46:56.684Z,19.21
2022-08-11T02:50:06.366Z,19.16
2022-08-11T02:52:46.801Z,19.13
2022-08-11T02:55:47.964Z,19.11
2022-08-11T02:58:15.827Z,19.11
2022-08-11T03:00:49.917Z,19.04
2022-08-11T03:03:24.074Z,18.95
2022-08-11T03:06:08.903Z,18.89
2022-08-11T03:08:53.551Z,18.85
2022-08-11T03:11:51.782Z,18.84
2022-08-11T03:14:47.610Z,18.86
2022-08-11T03:17:20.631Z,18.89
2022-08-11T03:19:57.563Z,18.76
2022-08-11T03:22:30.491Z,18.68
2022-08-11T03:25:02.873Z,18.71
2022-08-11T03:27:41.887Z,18.69
2022-08-11T03:30:15.772Z,18.67
2022-08-11T03:33:13.522Z,18.67
2022-08-11T03:35:50.219Z,18.64
2022-08-11T03:38:30.464Z,18.62
2022-08-11T03:42:04.154Z,18.58
2022-08-11T03:44:29.905Z,18.57
2022-08-11T03:47:09.282Z,18.61
2022-08-11T03:49:53.909Z,18.60
2022-08-11T03:52:28.789Z,18.63
2022-08-11T03:55:04.539Z,18.65
2022-08-11T03:58:05.752Z,18.72
2022-08-11T04:01:06.176Z,18.79
2022-08-11T04:04:10.902Z,18.83
2022-08-11T04:06:54.640Z,18.88
2022-08-11T04:09:53.167Z,18.99
2022-08-11T04:12:57.296Z,19.14
2022-08-11T04:16:11.886Z,19.22
2022-08-11T04:19:21.711Z,19.30
2022-08-11T04:22:21.415Z,19.46
2022-08-11T04:25:08.360Z,19.64
2022-08-11T04:28:29.075Z,19.70
2022-08-11T04:31:10.913Z,19.92
2022-08-11T04:34:08.039Z,20.15
2022-08-11T04:37:37.433Z,20.20
2022-08-11T04:40:44.322Z,20.42
2022-08-11T04:44:05.718Z,20.49
2022-08-11T04:47:07.913Z,20.65
2022-08-11T04:50:14.236Z,20.81
2022-08-11T04:53:28.785Z,20.97
2022-08-11T04:56:33.122Z,21.31
2022-08-11T04:59:38.676Z,21.74
2022-08-11T05:02:38.404Z,22.16
2022-08-11T05:05:32.816Z,22.59
2022-08-11T05:08:40.870Z,22.99
2022-08-11T05:11:30.851Z,23.36
2022-08-11T05:14:43.000Z,23.71
2022-08-11T05:17:33.507Z,24.08
2022-08-11T05:20:19.445Z,24.39
2022-08-11T05:23:10.129Z,24.59
2022-08-11T05:26:44.013Z,24.76
2022-08-11T05:29:19.759Z,24.98
2022-08-11T05:32:15.070Z,25.23
2022-08-11T05:34:52.026Z,25.46
2022-08-11T05:37:27.135Z,25.64
2022-08-11T05:40:24.481Z,25.93
2022-08-11T05:43:14.699Z,26.15
2022-08-11T05:46:04.690Z,26.30
2022-08-11T05:48:53.925Z,26.42
2022-08-11T05:51:51.914Z,26.49
2022-08-11T05:54:45.938Z,26.24
2022-08-11T05:57:50.081Z,26.21
2022-08-11T06:00:12.366Z,26.38
2022-08-11T06:02:43.728Z,26.52
2022-08-11T06:05:12.564Z,26.62
2022-08-11T06:07:49.194Z,26.75
2022-08-11T06:10:29.904Z,26.82
2022-08-11T06:13:01.313Z,26.88
2022-08-11T06:15:30.350Z,26.95
2022-08-11T06:18:01.414Z,27.12
2022-08-11T06:20:36.684Z,27.29
2022-08-11T06:23:06.861Z,27.43
2022-08-11T06:25:36.026Z,27.64
2022-08-11T06:28:07.358Z,27.77
2022-08-11T06:30:42.166Z,27.82
2022-08-11T06:33:11.690Z,27.88
2022-08-11T06:35:48.679Z,27.89
2022-08-11T06:38:28.372Z,27.93
2022-08-11T06:41:19.977Z,28.07
2022-08-11T06:43:55.759Z,28.22
2022-08-11T06:46:30.099Z,28.30
2022-08-11T06:48:58.107Z,28.53
2022-08-11T06:51:25.591Z,28.66
2022-08-11T06:54:04.776Z,28.74
2022-08-11T06:57:12.554Z,28.75
2022-08-11T07:00:02.432Z,28.86
2022-08-11T07:02:34.096Z,29.11
2022-08-11T07:05:08.349Z,29.26
2022-08-11T07:15:01.697Z,29.26
2022-08-11T07:16:10.763Z,29.25
2022-08-11T07:18:41.376Z,29.36
2022-08-11T07:22:01.365Z,29.57
2022-08-11T07:25:01.771Z,29.64
2022-08-11T07:27:55.635Z,29.88
2022-08-11T07:30:25.806Z,30.16
2022-08-11T07:32:54.946Z,30.34
2022-08-11T07:35:28.044Z,30.62
2022-08-11T07:38:01.704Z,30.73
2022-08-11T07:40:30.849Z,30.95
2022-08-11T07:43:00.841Z,31.22
2022-08-11T07:45:53.423Z,31.27
2022-08-11T07:48:39.746Z,31.39
2022-08-11T07:51:25.762Z,31.61
2022-08-11T07:53:58.634Z,31.89
2022-08-11T07:56:54.244Z,32.10
2022-08-11T08:00:00.446Z,32.22
2022-08-11T08:02:49.929Z,32.27
2022-08-11T08:05:37.777Z,32.20
2022-08-11T08:08:26.227Z,32.13
2022-08-11T08:11:13.894Z,32.16
2022-08-11T08:14:00.463Z,32.39
2022-08-11T08:16:48.955Z,32.58
2022-08-11T08:19:20.781Z,32.65
2022-08-11T08:21:49.375Z,32.81
2022-08-11T08:24:20.172Z,32.92
2022-08-11T08:27:01.167Z,32.90
2022-08-11T08:29:50.031Z,32.78
2022-08-11T08:32:18.838Z,32.88
2022-08-11T08:34:50.607Z,33.09
2022-08-11T08:37:46.420Z,33.26
2022-08-11T08:40:09.603Z,33.44
2022-08-11T08:42:45.223Z,33.43
2022-08-11T08:45:16.472Z,33.28
2022-08-11T08:47:52.561Z,33.18
2022-08-11T08:50:47.149Z,33.22
2022-08-11T08:53:15.871Z,33.23
2022-08-11T08:55:46.344Z,33.28
2022-08-11T08:58:14.770Z,33.15
2022-08-11T09:00:45.631Z,33.41
2022-08-11T09:03:38.892Z,33.57
2022-08-11T09:08:49.646Z,33.90
2022-08-11T09:11:42.623Z,34.10
2022-08-11T09:14:14.951Z,33.94
2022-08-11T09:16:44.406Z,33.94
2022-08-11T09:19:17.628Z,34.08
2022-08-11T09:22:12.821Z,34.40
2022-08-11T09:24:58.386Z,34.57
2022-08-11T09:27:26.670Z,34.62
2022-08-11T09:29:54.883Z,34.75
2022-08-11T09:32:22.957Z,34.76
2022-08-11T09:34:52.430Z,34.75
2022-08-11T09:37:55.582Z,34.72
2022-08-11T09:40:31.466Z,34.85
2022-08-11T09:43:21.790Z,34.79
2022-08-11T09:45:52.144Z,34.76
2022-08-11T09:48:21.064Z,34.98
2022-08-11T09:50:50.655Z,35.06
2022-08-11T09:53:36.306Z,35.10
2022-08-11T09:56:30.381Z,35.17
2022-08-11T09:58:59.130Z,35.20
2022-08-11T10:01:30.410Z,35.10
2022-08-11T10:04:01.665Z,34.78
2022-08-11T10:06:54.158Z,34.37
2022-08-11T10:09:25.615Z,34.39
2022-08-11T10:11:58.535Z,34.57
2022-08-11T10:14:47.149Z,34.93
2022-08-11T10:17:16.833Z,35.12
2022-08-11T10:19:48.849Z,35.16
2022-08-11T10:22:53.081Z,34.42
2022-08-11T10:25:58.317Z,34.32
2022-08-11T10:28:33.442Z,34.95
2022-08-11T10:31:23.909Z,34.96
2022-08-11T10:34:06.103Z,35.01
2022-08-11T10:36:48.334Z,35.28
2022-08-11T10:39:20.422Z,35.57
2022-08-11T10:42:12.207Z,35.83
2022-08-11T10:44:48.220Z,36.12
2022-08-11T10:47:34.861Z,36.06
2022-08-11T10:50:22.403Z,35.17
2022-08-11T10:53:10.087Z,34.26
2022-08-11T10:55:58.761Z,33.91
2022-08-11T10:58:46.944Z,33.93
2022-08-11T11:01:15.896Z,33.77
2022-08-11T11:03:43.919Z,33.47
2022-08-11T11:06:29.298Z,33.22
2022-08-11T11:09:04.591Z,33.13
2022-08-11T11:11:58.915Z,33.48
2022-08-11T11:14:53.720Z,33.41
2022-08-11T11:17:47.846Z,33.72
2022-08-11T11:20:36.300Z,34.22
2022-08-11T11:23:16.938Z,34.12
2022-08-11T11:26:13.332Z,33.82
2022-08-11T11:29:16.518Z,33.86
2022-08-11T11:31:56.270Z,33.95
2022-08-11T11:35:00.023Z,33.87
2022-08-11T11:37:32.366Z,33.72
2022-08-11T11:40:01.517Z,33.41
2022-08-11T11:42:30.045Z,33.20
2022-08-11T11:45:01.165Z,33.06
2022-08-11T11:47:31.111Z,32.98
2022-08-11T11:49:59.213Z,32.89
2022-08-11T11:52:27.541Z,32.84
2022-08-11T11:54:57.028Z,32.87
2022-08-11T11:57:58.403Z,32.81
2022-08-11T12:00:44.848Z,32.74
2022-08-11T12:03:13.662Z,32.68
2022-08-11T12:05:43.279Z,32.54
2022-08-11T12:08:16.415Z,32.42
2022-08-11T12:10:46.902Z,32.18
2022-08-11T12:13:33.905Z,32.04
2022-08-11T12:16:34.592Z,32.02
2022-08-11T12:18:55.242Z,31.94
2022-08-11T12:21:24.338Z,31.80
2022-08-11T12:27:31.413Z,31.60
2022-08-11T12:30:02.162Z,31.47
2022-08-11T12:32:31.292Z,31.42
2022-08-11T12:35:00.346Z,31.33
2022-08-11T12:37:31.997Z,31.25
2022-08-11T12:40:42.783Z,31.14
2022-08-11T12:43:37.188Z,31.04
2022-08-11T12:46:09.881Z,31.02
2022-08-11T12:49:03.521Z,30.97
2022-08-11T12:52:08.523Z,31.00
2022-08-11T12:54:52.407Z,30.94
2022-08-11T12:57:45.766Z,30.83
2022-08-11T13:00:32.973Z,30.68
2022-08-11T13:03:19.750Z,30.55
2022-08-11T13:05:49.741Z,30.45
2022-08-11T13:08:20.229Z,30.44
2022-08-11T13:11:09.496Z,30.36
2022-08-11T13:13:53.539Z,30.34
2022-08-11T13:16:27.129Z,30.39
2022-08-11T13:18:55.539Z,30.35
2022-08-11T13:21:23.503Z,30.37
2022-08-11T13:24:01.691Z,30.45
2022-08-11T13:26:46.676Z,30.44
2022-08-11T13:29:19.836Z,30.40
2022-08-11T13:31:47.762Z,30.48
2022-08-11T13:34:16.598Z,30.47
2022-08-11T13:36:44.658Z,30.53
2022-08-11T13:39:14.043Z,30.61
2022-08-11T13:41:45.195Z,30.71
2022-08-11T13:44:18.192Z,30.82
2022-08-11T13:46:48.765Z,31.03
2022-08-11T13:49:22.132Z,31.10
2022-08-11T13:51:50.188Z,31.21
2022-08-11T13:54:21.525Z,31.24
2022-08-11T13:56:52.867Z,31.23
2022-08-11T13:59:24.162Z,31.19
2022-08-11T14:02:22.251Z,31.25
2022-08-11T14:04:56.088Z,31.29
2022-08-11T14:07:34.786Z,31.24
2022-08-11T14:10:06.163Z,31.14
2022-08-11T14:12:54.266Z,31.08
2022-08-11T14:15:25.277Z,31.10
2022-08-11T14:17:56.562Z,31.00
2022-08-11T14:20:38.712Z,31.14
2022-08-11T14:23:11.003Z,31.28
2022-08-11T14:26:02.434Z,31.27
2022-08-11T14:28:37.500Z,31.23
2022-08-11T14:31:09.707Z,31.19
2022-08-11T14:34:00.884Z,31.18
2022-08-11T14:36:27.089Z,31.17
2022-08-11T14:38:55.218Z,31.32
2022-08-11T14:42:11.562Z,31.48
2022-08-11T14:44:50.800Z,31.69
2022-08-11T14:47:24.516Z,31.94
2022-08-11T14:50:10.458Z,31.96
2022-08-11T14:52:44.262Z,31.91
2022-08-11T14:55:31.509Z,31.69
2022-08-11T14:58:01.773Z,31.50
2022-08-11T15:00:29.877Z,31.38
2022-08-11T15:03:11.033Z,31.47
2022-08-11T15:05:41.767Z,31.66
2022-08-11T15:08:46.043Z,31.73
2022-08-11T15:11:34.098Z,31.79
2022-08-11T15:14:05.042Z,31.75
2022-08-11T15:16:51.545Z,31.57
2022-08-11T15:19:23.443Z,31.34
2022-08-11T15:22:09.620Z,31.27
2022-08-11T15:24:37.567Z,31.10
2022-08-11T15:27:27.449Z,30.96
2022-08-11T15:30:18.273Z,30.98
2022-08-11T15:33:21.675Z,31.04
2022-08-11T15:36:08.903Z,30.91
2022-08-11T15:38:42.567Z,30.89
2022-08-11T15:41:30.619Z,30.86
2022-08-11T15:44:17.243Z,30.76
2022-08-11T15:46:49.337Z,30.63
2022-08-11T15:49:23.665Z,30.49
2022-08-11T15:52:00.414Z,30.43
2022-08-11T15:54:32.702Z,30.37
2022-08-11T15:57:02.369Z,30.32
2022-08-11T15:59:50.680Z,30.22
2022-08-11T16:02:28.310Z,30.06
2022-08-11T16:04:58.438Z,29.90
2022-08-11T16:07:29.660Z,29.79
2022-08-11T16:10:01.847Z,29.68
2022-08-11T16:12:32.938Z,29.62
2022-08-11T16:15:20.936Z,29.55
2022-08-11T16:17:52.552Z,29.52
2022-08-11T16:20:22.598Z,29.45
2022-08-11T16:23:00.373Z,29.36
2022-08-11T16:27:03.505Z,29.34
2022-08-11T16:28:21.747Z,29.23
2022-08-11T16:30:50.122Z,29.18
2022-08-11T16:33:48.565Z,29.14
2022-08-11T16:36:27.259Z,29.08
2022-08-11T16:38:55.945Z,29.00
2022-08-11T16:41:48.965Z,28.91
2022-08-11T16:44:38.383Z,28.82
2022-08-11T16:47:08.575Z,28.73
2022-08-11T16:49:43.056Z,28.63
2022-08-11T16:52:15.163Z,28.58
2022-08-11T16:54:44.443Z,28.51
2022-08-11T16:57:34.722Z,28.43
2022-08-11T17:00:06.284Z,28.37
2022-08-11T17:02:56.004Z,28.30
2022-08-11T17:05:53.774Z,28.24
2022-08-11T17:08:55.902Z,28.17
2022-08-11T17:11:46.443Z,28.12
2022-08-11T17:14:18.114Z,28.04
2022-08-11T17:17:06.099Z,27.94
2022-08-11T17:20:39.581Z,27.84
2022-08-11T17:22:48.256Z,27.75
2022-08-11T17:25:17.213Z,27.64
2022-08-11T17:27:47.426Z,27.56
2022-08-11T17:30:14.958Z,27.50
2022-08-11T17:33:03.807Z,27.40
2022-08-11T17:35:34.943Z,27.29
2022-08-11T17:38:08.496Z,27.17
2022-08-11T17:40:39.570Z,27.04
2022-08-11T17:43:27.582Z,26.91
2022-08-11T17:46:05.118Z,26.81
2022-08-11T17:48:47.328Z,26.71
2022-08-11T17:51:38.105Z,26.59
2022-08-11T17:54:27.957Z,26.49
2022-08-11T17:57:21.265Z,26.35
2022-08-11T17:59:55.276Z,26.23
2022-08-11T18:02:45.245Z,26.14
2022-08-11T18:05:13.951Z,26.03
2022-08-11T18:08:01.905Z,25.96
2022-08-11T18:10:50.903Z,25.90
2022-08-11T18:13:39.601Z,25.81
2022-08-11T18:16:26.192Z,25.68
2022-08-11T18:19:12.222Z,25.60
2022-08-11T18:22:13.068Z,25.51
2022-08-11T18:25:06.191Z,25.39
2022-08-11T18:27:56.915Z,25.33
2022-08-11T18:30:43.885Z,25.26
2022-08-11T18:33:56.882Z,25.21
2022-08-11T18:36:42.564Z,25.09
2022-08-11T18:39:30.658Z,24.96
2022-08-11T18:42:28.825Z,24.84
2022-08-11T18:45:22.448Z,24.71
2022-08-11T18:48:11.508Z,24.64
2022-08-11T18:51:29.974Z,24.56
2022-08-11T18:54:10.594Z,24.41
2022-08-11T18:56:56.624Z,24.31
2022-08-11T18:59:46.035Z,24.24
2022-08-11T19:02:48.300Z,24.16
2022-08-11T19:06:05.898Z,24.01
2022-08-11T19:08:48.888Z,23.87
2022-08-11T19:11:40.341Z,23.82
2022-08-11T19:14:30.688Z,23.70
2022-08-11T19:17:44.337Z,23.56
2022-08-11T19:20:28.279Z,23.46
2022-08-11T19:23:15.783Z,23.38
2022-08-11T19:26:02.331Z,23.31
2022-08-11T19:28:49.410Z,23.23
2022-08-11T19:31:37.959Z,23.19
2022-08-11T19:34:28.125Z,23.17
2022-08-11T19:37:15.041Z,23.15
2022-08-11T19:40:01.745Z,23.14
2022-08-11T19:42:48.021Z,23.06
2022-08-11T19:45:34.513Z,23.01
2022-08-11T19:48:31.628Z,22.92
2022-08-11T19:51:19.264Z,22.85
2022-08-11T19:54:07.308Z,22.82
2022-08-11T19:56:55.214Z,22.76
2022-08-11T19:59:41.909Z,22.66
2022-08-11T20:02:28.708Z,22.60
2022-08-11T20:05:14.754Z,22.53
2022-08-11T20:08:01.599Z,22.48
2022-08-11T20:10:52.001Z,22.43
2022-08-11T20:13:41.643Z,22.42
2022-08-11T20:16:31.184Z,22.39
2022-08-11T20:19:18.343Z,22.34
2022-08-11T20:22:08.442Z,22.30
2022-08-11T20:24:56.787Z,22.25
2022-08-11T20:27:44.435Z,22.25
2022-08-11T20:30:31.610Z,22.19
2022-08-11T20:33:17.610Z,22.17
2022-08-11T20:36:07.914Z,22.12
2022-08-11T20:38:55.623Z,22.05
2022-08-11T20:41:49.165Z,22.02
2022-08-11T20:44:48.176Z,21.98
2022-08-11T20:47:56.146Z,21.89
2022-08-11T20:50:45.565Z,21.77
2022-08-11T20:53:35.604Z,21.75
2022-08-11T20:56:28.785Z,21.68
2022-08-11T20:59:18.331Z,21.64
2022-08-11T21:02:09.871Z,21.58
2022-08-11T21:04:57.776Z,21.55
2022-08-11T21:07:56.798Z,21.51
2022-08-11T21:10:51.427Z,21.46
2022-08-11T21:13:41.468Z,21.43
2022-08-11T21:16:30.366Z,21.42
2022-08-11T21:20:01.377Z,21.36
2022-08-11T21:22:59.680Z,21.26
2022-08-11T21:25:59.462Z,21.20
2022-08-11T21:28:46.158Z,21.18
2022-08-11T21:31:33.461Z,21.13
2022-08-11T21:34:21.853Z,21.06
2022-08-11T21:37:09.019Z,21.00
2022-08-11T21:39:55.481Z,20.94
2022-08-11T21:42:42.531Z,20.89
2022-08-11T21:45:31.608Z,20.84
2022-08-11T21:48:19.656Z,20.79
2022-08-11T21:51:06.608Z,20.77
2022-08-11T21:53:53.153Z,20.70
2022-08-11T21:56:40.786Z,20.67
2022-08-11T21:59:27.226Z,20.63
2022-08-11T22:02:13.293Z,20.58
2022-08-11T22:04:59.889Z,20.53
2022-08-11T22:07:47.176Z,20.50
2022-08-11T22:10:41.389Z,20.46
2022-08-11T22:13:30.398Z,20.36
2022-08-11T22:16:17.408Z,20.32
2022-08-11T22:19:04.643Z,20.24
2022-08-11T22:22:02.648Z,20.18
2022-08-11T22:24:53.284Z,20.04
2022-08-11T22:27:39.880Z,20.01
2022-08-11T22:30:27.589Z,19.97
2022-08-11T22:33:17.021Z,19.95
2022-08-11T22:36:04.197Z,19.91
2022-08-11T22:38:51.679Z,19.83
2022-08-11T22:41:39.709Z,19.80
2022-08-11T22:44:25.909Z,19.82
2022-08-11T22:47:13.862Z,19.73
2022-08-11T22:50:05.435Z,19.68
2022-08-11T22:52:52.617Z,19.66
2022-08-11T22:55:39.108Z,19.63
2022-08-11T22:58:26.753Z,19.60
2022-08-11T23:01:12.731Z,19.56
2022-08-11T23:03:58.927Z,19.49
2022-08-11T23:06:45.545Z,19.43
2022-08-11T23:09:31.978Z,19.38
2022-08-11T23:12:18.017Z,19.33
2022-08-11T23:15:05.154Z,19.20
2022-08-11T23:17:51.070Z,19.17
2022-08-11T23:20:50.027Z,19.20
2022-08-11T23:23:43.881Z,19.22
2022-08-11T23:26:30.402Z,19.20
2022-08-11T23:29:17.398Z,19.15
2022-08-11T23:32:05.333Z,19.15
2022-08-11T23:35:03.568Z,19.11
2022-08-11T23:37:51.578Z,19.09
2022-08-11T23:40:37.473Z,19.07
2022-08-11T23:43:23.370Z,19.04
2022-08-11T23:46:09.334Z,18.98
2022-08-11T23:48:58.005Z,18.93
2022-08-11T23:51:45.899Z,18.90
2022-08-11T23:54:36.947Z,18.89
2022-08-11T23:57:24.142Z,18.88
